sensor_id;sensor_type;location;lat;lon;timestamp;pressure;altitude;pressure_sealevel;temperature;humidity
4590;BME280;2307;48.448;9.216;2022-09-09T00:00:38;95113.03;;;17.54;70.02
4590;BME280;2307;48.448;9.216;2022-09-09T00:03:07;95111.44;;;17.53;70.25
4590;BME280;2307;48.448;9.216;2022-09-09T00:05:41;95104.47;;;17.57;69.34
4590;BME280;2307;48.448;9.216;2022-09-09T00:08:11;95107.94;;;17.58;69.98
4590;BME280;2307;48.448;9.216;2022-09-09T00:10:42;95101.22;;;17.60;69.80
4590;BME280;2307;48.448;9.216;2022-09-09T00:13:12;95096.47;;;17.57;70.41
4590;BME280;2307;48.448;9.216;2022-09-09T00:15:43;95090.34;;;17.57;70.77
4590;BME280;2307;48.448;9.216;2022-09-09T00:18:17;95085.81;;;17.52;71.72
4590;BME280;2307;48.448;9.216;2022-09-09T00:20:52;95089.06;;;17.49;71.84
4590;BME280;2307;48.448;9.216;2022-09-09T00:23:23;95086.06;;;17.56;71.97
4590;BME280;2307;48.448;9.216;2022-09-09T00:25:53;95081.31;;;17.47;72.59
4590;BME280;2307;48.448;9.216;2022-09-09T00:28:20;95084.00;;;17.47;73.21
4590;BME280;2307;48.448;9.216;2022-09-09T00:30:48;95084.28;;;17.46;72.86
4590;BME280;2307;48.448;9.216;2022-09-09T00:33:15;95082.59;;;17.55;72.60
4590;BME280;2307;48.448;9.216;2022-09-09T00:35:44;95089.78;;;17.54;72.77
4590;BME280;2307;48.448;9.216;2022-09-09T00:38:12;95082.34;;;17.51;72.84
4590;BME280;2307;48.448;9.216;2022-09-09T00:40:41;95090.66;;;17.50;73.25
4590;BME280;2307;48.448;9.216;2022-09-09T00:43:16;95092.88;;;17.43;73.98
4590;BME280;2307;48.448;9.216;2022-09-09T00:45:52;95096.69;;;17.37;75.60
4590;BME280;2307;48.448;9.216;2022-09-09T00:48:24;95093.44;;;17.40;75.55
4590;BME280;2307;48.448;9.216;2022-09-09T00:50:56;95089.91;;;17.44;75.47
4590;BME280;2307;48.448;9.216;2022-09-09T00:53:29;95090.69;;;17.45;76.01
4590;BME280;2307;48.448;9.216;2022-09-09T00:56:00;95077.41;;;17.40;76.74
4590;BME280;2307;48.448;9.216;2022-09-09T00:58:30;95085.44;;;17.40;76.58
4590;BME280;2307;48.448;9.216;2022-09-09T01:00:57;95084.41;;;17.36;77.84
4590;BME280;2307;48.448;9.216;2022-09-09T01:03:32;95083.94;;;17.29;78.30
4590;BME280;2307;48.448;9.216;2022-09-09T01:06:11;95093.16;;;17.18;79.28
4590;BME280;2307;48.448;9.216;2022-09-09T01:08:46;95096.88;;;17.17;80.39
4590;BME280;2307;48.448;9.216;2022-09-09T01:11:20;95090.50;;;17.13;80.24
4590;BME280;2307;48.448;9.216;2022-09-09T01:13:47;95090.00;;;17.11;80.86
4590;BME280;2307;48.448;9.216;2022-09-09T01:16:15;95084.41;;;17.12;80.97
4590;BME280;2307;48.448;9.216;2022-09-09T01:18:44;95085.25;;;17.08;81.53
4590;BME280;2307;48.448;9.216;2022-09-09T01:21:14;95088.75;;;17.03;82.30
4590;BME280;2307;48.448;9.216;2022-09-09T01:24:00;95075.19;;;16.99;82.88
4590;BME280;2307;48.448;9.216;2022-09-09T01:26:32;95076.78;;;17.00;82.81
4590;BME280;2307;48.448;9.216;2022-09-09T01:29:01;95082.66;;;16.97;83.56
4590;BME280;2307;48.448;9.216;2022-09-09T01:31:28;95083.72;;;17.02;83.33
4590;BME280;2307;48.448;9.216;2022-09-09T01:33:57;95075.28;;;16.89;84.41
4590;BME280;2307;48.448;9.216;2022-09-09T01:36:26;95079.50;;;16.95;84.03
4590;BME280;2307;48.448;9.216;2022-09-09T01:38:56;95082.66;;;16.97;83.53
4590;BME280;2307;48.448;9.216;2022-09-09T01:41:22;95079.97;;;17.03;84.90
4590;BME280;2307;48.448;9.216;2022-09-09T01:43:50;95086.22;;;16.88;85.51
4590;BME280;2307;48.448;9.216;2022-09-09T01:46:17;95083.88;;;16.81;87.03
4590;BME280;2307;48.448;9.216;2022-09-09T01:48:44;95082.88;;;16.77;87.01
4590;BME280;2307;48.448;9.216;2022-09-09T01:51:11;95084.44;;;16.83;86.67
4590;BME280;2307;48.448;9.216;2022-09-09T01:53:38;95088.09;;;16.87;86.26
4590;BME280;2307;48.448;9.216;2022-09-09T01:56:10;95087.59;;;16.85;85.58
4590;BME280;2307;48.448;9.216;2022-09-09T01:58:43;95092.44;;;16.83;87.52
4590;BME280;2307;48.448;9.216;2022-09-09T02:01:15;95092.88;;;16.90;86.56
4590;BME280;2307;48.448;9.216;2022-09-09T02:03:44;95092.78;;;17.00;86.54
4590;BME280;2307;48.448;9.216;2022-09-09T02:06:14;95089.44;;;16.90;90.81
4590;BME280;2307;48.448;9.216;2022-09-09T02:08:45;95088.78;;;16.74;95.27
4590;BME280;2307;48.448;9.216;2022-09-09T02:11:13;95091.31;;;16.56;97.28
4590;BME280;2307;48.448;9.216;2022-09-09T02:13:40;95087.88;;;16.55;95.65
4590;BME280;2307;48.448;9.216;2022-09-09T02:16:10;95092.16;;;16.46;96.27
4590;BME280;2307;48.448;9.216;2022-09-09T02:18:41;95088.91;;;16.54;96.93
4590;BME280;2307;48.448;9.216;2022-09-09T02:21:09;95095.22;;;16.29;99.56
4590;BME280;2307;48.448;9.216;2022-09-09T02:23:36;95094.00;;;16.12;100.00
4590;BME280;2307;48.448;9.216;2022-09-09T02:26:04;95101.44;;;16.20;100.00
4590;BME280;2307;48.448;9.216;2022-09-09T02:28:34;95105.03;;;16.39;98.76
4590;BME280;2307;48.448;9.216;2022-09-09T02:31:02;95102.75;;;16.22;100.00
4590;BME280;2307;48.448;9.216;2022-09-09T02:33:30;95112.63;;;16.17;100.00
4590;BME280;2307;48.448;9.216;2022-09-09T02:36:01;95119.03;;;16.16;100.00
4590;BME280;2307;48.448;9.216;2022-09-09T02:38:29;95113.66;;;16.21;100.00
4590;BME280;2307;48.448;9.216;2022-09-09T02:40:58;95123.81;;;16.19;100.00
4590;BME280;2307;48.448;9.216;2022-09-09T02:43:24;95119.22;;;15.85;100.00
4590;BME280;2307;48.448;9.216;2022-09-09T02:45:51;95123.47;;;15.81;100.00
4590;BME280;2307;48.448;9.216;2022-09-09T02:48:20;95130.63;;;15.86;100.00
4590;BME280;2307;48.448;9.216;2022-09-09T02:50:50;95131.38;;;15.97;100.00
4590;BME280;2307;48.448;9.216;2022-09-09T02:53:22;95116.00;;;15.83;100.00
4590;BME280;2307;48.448;9.216;2022-09-09T02:55:51;95119.94;;;15.96;100.00
4590;BME280;2307;48.448;9.216;2022-09-09T02:58:20;95113.56;;;15.92;100.00
4590;BME280;2307;48.448;9.216;2022-09-09T03:00:47;95111.63;;;16.08;100.00
4590;BME280;2307;48.448;9.216;2022-09-09T03:03:14;95111.13;;;16.01;100.00
4590;BME280;2307;48.448;9.216;2022-09-09T03:05:42;95110.28;;;16.10;100.00
4590;BME280;2307;48.448;9.216;2022-09-09T03:08:09;95113.66;;;16.21;100.00
4590;BME280;2307;48.448;9.216;2022-09-09T03:10:36;95107.56;;;16.20;100.00
4590;BME280;2307;48.448;9.216;2022-09-09T03:13:03;95116.88;;;16.18;100.00
4590;BME280;2307;48.448;9.216;2022-09-09T03:15:30;95111.53;;;16.23;100.00
4590;BME280;2307;48.448;9.216;2022-09-09T03:17:57;95104.09;;;16.20;100.00
4590;BME280;2307;48.448;9.216;2022-09-09T03:20:24;95117.69;;;16.18;100.00
4590;BME280;2307;48.448;9.216;2022-09-09T03:22:51;95131.38;;;15.97;100.00
4590;BME280;2307;48.448;9.216;2022-09-09T03:25:18;95142.81;;;16.02;100.00
4590;BME280;2307;48.448;9.216;2022-09-09T03:27:45;95137.34;;;15.78;100.00
4590;BME280;2307;48.448;9.216;2022-09-09T03:30:12;95146.50;;;15.52;100.00
4590;BME280;2307;48.448;9.216;2022-09-09T03:32:38;95137.50;;;15.18;100.00
4590;BME280;2307;48.448;9.216;2022-09-09T03:35:05;95138.09;;;14.89;100.00
4590;BME280;2307;48.448;9.216;2022-09-09T03:37:32;95131.69;;;14.50;100.00
4590;BME280;2307;48.448;9.216;2022-09-09T03:39:58;95129.53;;;14.32;100.00
4590;BME280;2307;48.448;9.216;2022-09-09T03:42:24;95135.09;;;14.25;100.00
4590;BME280;2307;48.448;9.216;2022-09-09T03:44:53;95126.06;;;14.31;100.00
4590;BME280;2307;48.448;9.216;2022-09-09T03:47:19;95133.31;;;14.36;100.00
4590;BME280;2307;48.448;9.216;2022-09-09T03:49:46;95123.69;;;14.25;100.00
4590;BME280;2307;48.448;9.216;2022-09-09T03:52:13;95119.41;;;14.19;100.00
4590;BME280;2307;48.448;9.216;2022-09-09T03:54:39;95123.66;;;14.15;100.00
4590;BME280;2307;48.448;9.216;2022-09-09T03:57:07;95128.69;;;14.06;100.00
4590;BME280;2307;48.448;9.216;2022-09-09T03:59:34;95113.31;;;14.13;100.00
4590;BME280;2307;48.448;9.216;2022-09-09T04:02:02;95110.41;;;14.25;100.00
4590;BME280;2307;48.448;9.216;2022-09-09T04:04:29;95103.53;;;14.34;100.00
4590;BME280;2307;48.448;9.216;2022-09-09T04:06:55;95097.16;;;14.45;100.00
4590;BME280;2307;48.448;9.216;2022-09-09T04:09:21;95101.69;;;14.55;100.00
4590;BME280;2307;48.448;9.216;2022-09-09T04:11:48;95111.78;;;14.63;100.00
4590;BME280;2307;48.448;9.216;2022-09-09T04:14:14;95120.00;;;14.46;100.00
4590;BME280;2307;48.448;9.216;2022-09-09T04:16:41;95124.25;;;14.47;100.00
4590;BME280;2307;48.448;9.216;2022-09-09T04:19:11;95116.81;;;14.44;100.00
4590;BME280;2307;48.448;9.216;2022-09-09T04:21:38;95114.69;;;14.51;100.00
4590;BME280;2307;48.448;9.216;2022-09-09T04:24:05;95121.63;;;14.52;100.00
4590;BME280;2307;48.448;9.216;2022-09-09T04:26:32;95112.56;;;14.53;100.00
4590;BME280;2307;48.448;9.216;2022-09-09T04:28:58;95109.38;;;14.46;100.00
4590;BME280;2307;48.448;9.216;2022-09-09T04:31:25;95115.50;;;14.52;100.00
4590;BME280;2307;48.448;9.216;2022-09-09T04:33:51;95120.00;;;14.46;100.00
4590;BME280;2307;48.448;9.216;2022-09-09T04:36:19;95121.63;;;14.42;100.00
4590;BME280;2307;48.448;9.216;2022-09-09T04:38:46;95116.56;;;14.46;100.00
4590;BME280;2307;48.448;9.216;2022-09-09T04:41:13;95125.34;;;14.51;100.00
4590;BME280;2307;48.448;9.216;2022-09-09T04:43:41;95127.72;;;14.48;100.00
4590;BME280;2307;48.448;9.216;2022-09-09T04:46:08;95120.53;;;14.38;100.00
4590;BME280;2307;48.448;9.216;2022-09-09T04:48:34;95116.25;;;14.22;100.00
4590;BME280;2307;48.448;9.216;2022-09-09T04:51:01;95116.25;;;14.22;100.00
4590;BME280;2307;48.448;9.216;2022-09-09T04:53:30;95116.00;;;14.23;100.00
4590;BME280;2307;48.448;9.216;2022-09-09T04:56:03;95117.31;;;14.31;100.00
4590;BME280;2307;48.448;9.216;2022-09-09T04:58:29;95110.16;;;14.26;100.00
4590;BME280;2307;48.448;9.216;2022-09-09T05:01:02;95117.06;;;14.32;100.00
4590;BME280;2307;48.448;9.216;2022-09-09T05:03:28;95121.88;;;14.35;100.00
4590;BME280;2307;48.448;9.216;2022-09-09T05:05:56;95112.56;;;14.43;100.00
4590;BME280;2307;48.448;9.216;2022-09-09T05:08:30;95109.13;;;14.48;100.00
4590;BME280;2307;48.448;9.216;2022-09-09T05:10:56;95121.34;;;14.39;100.00
4590;BME280;2307;48.448;9.216;2022-09-09T05:13:24;95107.75;;;14.30;100.00
4590;BME280;2307;48.448;9.216;2022-09-09T05:15:51;95114.97;;;14.40;100.00
4590;BME280;2307;48.448;9.216;2022-09-09T05:18:18;95114.44;;;14.43;100.00
4590;BME280;2307;48.448;9.216;2022-09-09T05:20:45;95117.34;;;14.41;100.00
4590;BME280;2307;48.448;9.216;2022-09-09T05:23:11;95127.47;;;14.39;100.00
4590;BME280;2307;48.448;9.216;2022-09-09T05:25:40;95126.88;;;14.32;100.00
4590;BME280;2307;48.448;9.216;2022-09-09T05:28:07;95139.66;;;14.35;100.00
4590;BME280;2307;48.448;9.216;2022-09-09T05:30:33;95133.28;;;14.41;100.00
4590;BME280;2307;48.448;9.216;2022-09-09T05:33:00;95135.41;;;14.34;100.00
4590;BME280;2307;48.448;9.216;2022-09-09T05:35:26;95135.41;;;14.44;100.00
4590;BME280;2307;48.448;9.216;2022-09-09T05:37:53;95141.25;;;14.46;100.00
4590;BME280;2307;48.448;9.216;2022-09-09T05:40:21;95138.09;;;14.39;100.00
4590;BME280;2307;48.448;9.216;2022-09-09T05:42:48;95147.66;;;14.45;100.00
4590;BME280;2307;48.448;9.216;2022-09-09T05:45:15;95145.28;;;14.49;100.00
4590;BME280;2307;48.448;9.216;2022-09-09T05:47:41;95147.41;;;14.52;100.00
4590;BME280;2307;48.448;9.216;2022-09-09T05:50:08;95143.41;;;14.59;100.00
4590;BME280;2307;48.448;9.216;2022-09-09T05:52:34;95149.00;;;14.73;100.00
4590;BME280;2307;48.448;9.216;2022-09-09T05:55:01;95159.88;;;14.76;100.00
4590;BME280;2307;48.448;9.216;2022-09-09T05:57:29;95149.78;;;14.78;100.00
4590;BME280;2307;48.448;9.216;2022-09-09T05:59:57;95152.97;;;14.70;100.00
4590;BME280;2307;48.448;9.216;2022-09-09T06:02:24;95149.25;;;14.76;100.00
4590;BME280;2307;48.448;9.216;2022-09-09T06:04:50;95145.78;;;14.91;100.00
4590;BME280;2307;48.448;9.216;2022-09-09T06:07:17;95152.44;;;14.99;100.00
4590;BME280;2307;48.448;9.216;2022-09-09T06:09:43;95148.69;;;15.10;100.00
4590;BME280;2307;48.448;9.216;2022-09-09T06:12:09;95151.34;;;15.15;100.00
4590;BME280;2307;48.448;9.216;2022-09-09T06:14:36;95145.53;;;15.03;100.00
4590;BME280;2307;48.448;9.216;2022-09-09T06:17:04;95151.34;;;15.15;100.00
4590;BME280;2307;48.448;9.216;2022-09-09T06:19:31;95146.56;;;15.12;100.00
4590;BME280;2307;48.448;9.216;2022-09-09T06:21:58;95146.56;;;15.12;100.00
4590;BME280;2307;48.448;9.216;2022-09-09T06:24:24;95152.13;;;15.20;100.00
4590;BME280;2307;48.448;9.216;2022-09-09T06:26:50;95146.00;;;15.25;100.00
4590;BME280;2307;48.448;9.216;2022-09-09T06:29:17;95145.72;;;15.31;100.00
4590;BME280;2307;48.448;9.216;2022-09-09T06:31:43;95153.94;;;15.40;100.00
4590;BME280;2307;48.448;9.216;2022-09-09T06:34:11;95149.69;;;15.39;100.00
4590;BME280;2307;48.448;9.216;2022-09-09T06:36:38;95144.38;;;15.34;100.00
4590;BME280;2307;48.448;9.216;2022-09-09T06:39:04;95150.47;;;15.44;100.00
4590;BME280;2307;48.448;9.216;2022-09-09T06:41:32;95152.28;;;15.64;100.00
4590;BME280;2307;48.448;9.216;2022-09-09T06:43:59;95154.41;;;15.67;100.00
4590;BME280;2307;48.448;9.216;2022-09-09T06:46:26;95139.47;;;15.81;100.00
4590;BME280;2307;48.448;9.216;2022-09-09T06:48:53;95151.69;;;15.87;100.00
4590;BME280;2307;48.448;9.216;2022-09-09T06:51:23;95160.34;;;16.08;100.00
4590;BME280;2307;48.448;9.216;2022-09-09T06:53:51;95150.97;;;16.21;100.00
4590;BME280;2307;48.448;9.216;2022-09-09T06:56:19;95157.44;;;16.10;100.00
4590;BME280;2307;48.448;9.216;2022-09-09T06:58:46;95160.34;;;16.13;100.00
4590;BME280;2307;48.448;9.216;2022-09-09T07:01:14;95162.41;;;16.26;100.00
4590;BME280;2307;48.448;9.216;2022-09-09T07:03:41;95161.97;;;16.53;100.00
4590;BME280;2307;48.448;9.216;2022-09-09T07:06:08;95163.94;;;16.37;100.00
4590;BME280;2307;48.448;9.216;2022-09-09T07:08:40;95173.22;;;16.40;100.00
4590;BME280;2307;48.448;9.216;2022-09-09T07:11:07;95172.13;;;16.46;100.00
4590;BME280;2307;48.448;9.216;2022-09-09T07:13:34;95163.06;;;16.47;100.00
4590;BME280;2307;48.448;9.216;2022-09-09T07:16:03;95164.34;;;16.60;100.00
4590;BME280;2307;48.448;9.216;2022-09-09T07:18:29;95157.56;;;16.77;100.00
4590;BME280;2307;48.448;9.216;2022-09-09T07:20:56;95163.34;;;16.84;100.00
4590;BME280;2307;48.448;9.216;2022-09-09T07:23:23;95155.13;;;17.10;100.00
4590;BME280;2307;48.448;9.216;2022-09-09T07:25:50;95161.00;;;17.12;100.00
4590;BME280;2307;48.448;9.216;2022-09-09T07:28:18;95158.56;;;17.15;100.00
4590;BME280;2307;48.448;9.216;2022-09-09T07:30:52;95155.19;;;17.33;100.00
4590;BME280;2307;48.448;9.216;2022-09-09T07:33:18;95156.53;;;17.31;100.00
4590;BME280;2307;48.448;9.216;2022-09-09T07:35:45;95169.25;;;17.39;100.00
4590;BME280;2307;48.448;9.216;2022-09-09T07:38:11;95169.59;;;17.32;100.00
4590;BME280;2307;48.448;9.216;2022-09-09T07:40:38;95181.88;;;17.33;100.00
4590;BME280;2307;48.448;9.216;2022-09-09T07:43:06;95185.94;;;17.26;100.00
4590;BME280;2307;48.448;9.216;2022-09-09T07:45:33;95194.34;;;17.38;100.00
4590;BME280;2307;48.448;9.216;2022-09-09T07:48:00;95193.06;;;17.64;100.00
4590;BME280;2307;48.448;9.216;2022-09-09T07:50:26;95196.03;;;17.63;100.00
4590;BME280;2307;48.448;9.216;2022-09-09T07:52:53;95191.31;;;17.49;100.00
4590;BME280;2307;48.448;9.216;2022-09-09T07:55:19;95200.81;;;17.66;100.00
4590;BME280;2307;48.448;9.216;2022-09-09T07:57:46;95199.53;;;17.58;100.00
4590;BME280;2307;48.448;9.216;2022-09-09T08:00:14;95194.56;;;17.75;100.00
4590;BME280;2307;48.448;9.216;2022-09-09T08:02:41;95199.91;;;17.75;100.00
4590;BME280;2307;48.448;9.216;2022-09-09T08:05:07;95196.94;;;17.77;100.00
4590;BME280;2307;48.448;9.216;2022-09-09T08:07:34;95198.19;;;17.84;100.00
4590;BME280;2307;48.448;9.216;2022-09-09T08:10:01;95195.22;;;18.10;100.00
4590;BME280;2307;48.448;9.216;2022-09-09T08:12:27;95208.84;;;18.08;100.00
4590;BME280;2307;48.448;9.216;2022-09-09T08:14:53;95204.13;;;18.24;100.00
4590;BME280;2307;48.448;9.216;2022-09-09T08:17:21;95208.38;;;18.25;100.00
4590;BME280;2307;48.448;9.216;2022-09-09T08:19:47;95210.28;;;18.43;100.00
4590;BME280;2307;48.448;9.216;2022-09-09T08:22:14;95208.63;;;18.47;100.00
4590;BME280;2307;48.448;9.216;2022-09-09T08:24:40;95210.13;;;18.34;100.00
4590;BME280;2307;48.448;9.216;2022-09-09T08:27:07;95210.91;;;18.16;100.00
4590;BME280;2307;48.448;9.216;2022-09-09T08:29:34;95212.13;;;17.81;100.00
4590;BME280;2307;48.448;9.216;2022-09-09T08:32:02;95209.78;;;17.75;100.00
4590;BME280;2307;48.448;9.216;2022-09-09T08:34:30;95213.75;;;17.77;100.00
4590;BME280;2307;48.448;9.216;2022-09-09T08:36:57;95207.72;;;17.67;100.00
4590;BME280;2307;48.448;9.216;2022-09-09T08:39:23;95207.59;;;17.53;100.00
4590;BME280;2307;48.448;9.216;2022-09-09T08:44:37;95215.88;;;17.51;100.00
4590;BME280;2307;48.448;9.216;2022-09-09T08:47:07;95221.84;;;17.43;100.00
4590;BME280;2307;48.448;9.216;2022-09-09T08:49:55;95220.63;;;17.54;100.00
4590;BME280;2307;48.448;9.216;2022-09-09T08:52:25;95216.59;;;17.62;100.00
4590;BME280;2307;48.448;9.216;2022-09-09T08:54:54;95212.81;;;17.63;100.00
4590;BME280;2307;48.448;9.216;2022-09-09T08:57:23;95210.06;;;17.73;100.00
4590;BME280;2307;48.448;9.216;2022-09-09T08:59:51;95214.88;;;17.95;100.00
4590;BME280;2307;48.448;9.216;2022-09-09T09:02:21;95209.34;;;17.91;100.00
4590;BME280;2307;48.448;9.216;2022-09-09T09:04:54;95212.59;;;17.88;100.00
4590;BME280;2307;48.448;9.216;2022-09-09T09:07:28;95218.44;;;17.90;100.00
4590;BME280;2307;48.448;9.216;2022-09-09T09:10:01;95204.56;;;17.88;100.00
4590;BME280;2307;48.448;9.216;2022-09-09T09:12:29;95213.41;;;18.08;100.00
4590;BME280;2307;48.448;9.216;2022-09-09T09:14:58;95200.09;;;18.26;100.00
4590;BME280;2307;48.448;9.216;2022-09-09T09:17:26;95202.78;;;18.45;100.00
4590;BME280;2307;48.448;9.216;2022-09-09T09:19:57;95188.97;;;18.38;100.00
4590;BME280;2307;48.448;9.216;2022-09-09T09:22:26;95190.13;;;18.32;100.00
4590;BME280;2307;48.448;9.216;2022-09-09T09:24:59;95207.31;;;18.26;100.00
4590;BME280;2307;48.448;9.216;2022-09-09T09:27:30;95204.88;;;18.05;100.00
4590;BME280;2307;48.448;9.216;2022-09-09T09:29:58;95208.28;;;18.11;100.00
4590;BME280;2307;48.448;9.216;2022-09-09T09:32:25;95200.50;;;18.15;100.00
4590;BME280;2307;48.448;9.216;2022-09-09T09:34:53;95203.25;;;18.28;100.00
4590;BME280;2307;48.448;9.216;2022-09-09T09:37:23;95199.31;;;18.44;100.00
4590;BME280;2307;48.448;9.216;2022-09-09T09:39:52;95199.25;;;18.49;100.00
4590;BME280;2307;48.448;9.216;2022-09-09T09:42:19;95200.50;;;18.57;100.00
4590;BME280;2307;48.448;9.216;2022-09-09T09:44:45;95209.91;;;18.54;99.84
4590;BME280;2307;48.448;9.216;2022-09-09T09:47:12;95205.44;;;18.45;90.60
4590;BME280;2307;48.448;9.216;2022-09-09T09:49:39;95202.09;;;18.58;92.08
4590;BME280;2307;48.448;9.216;2022-09-09T09:52:17;95196.66;;;18.63;92.30
4590;BME280;2307;48.448;9.216;2022-09-09T09:54:48;95194.00;;;18.63;90.32
4590;BME280;2307;48.448;9.216;2022-09-09T09:57:14;95202.16;;;18.72;93.94
4590;BME280;2307;48.448;9.216;2022-09-09T09:59:43;95190.94;;;18.88;81.48
4590;BME280;2307;48.448;9.216;2022-09-09T10:02:17;95191.69;;;19.07;84.44
4590;BME280;2307;48.448;9.216;2022-09-09T10:04:44;95193.19;;;19.14;79.69
4590;BME280;2307;48.448;9.216;2022-09-09T10:07:11;95197.06;;;19.40;77.40
4590;BME280;2307;48.448;9.216;2022-09-09T10:09:37;95186.78;;;19.60;80.38
4590;BME280;2307;48.448;9.216;2022-09-09T10:12:08;95197.03;;;19.72;76.38
4590;BME280;2307;48.448;9.216;2022-09-09T10:14:42;95192.13;;;19.47;76.13
4590;BME280;2307;48.448;9.216;2022-09-09T10:17:15;95205.91;;;19.40;74.93
4590;BME280;2307;48.448;9.216;2022-09-09T10:19:50;95203.06;;;19.32;77.67
4590;BME280;2307;48.448;9.216;2022-09-09T10:22:30;95188.28;;;19.21;75.76
4590;BME280;2307;48.448;9.216;2022-09-09T10:27:50;95190.09;;;19.06;76.06
4590;BME280;2307;48.448;9.216;2022-09-09T10:30:22;95184.31;;;19.18;74.79
4590;BME280;2307;48.448;9.216;2022-09-09T10:32:51;95183.50;;;19.31;72.49
4590;BME280;2307;48.448;9.216;2022-09-09T10:35:24;95183.13;;;19.56;69.39
4590;BME280;2307;48.448;9.216;2022-09-09T10:40:43;95180.75;;;19.96;63.73
4590;BME280;2307;48.448;9.216;2022-09-09T10:43:23;95187.19;;;20.08;67.55
4590;BME280;2307;48.448;9.216;2022-09-09T10:45:56;95191.16;;;20.11;69.95
4590;BME280;2307;48.448;9.216;2022-09-09T10:48:31;95179.25;;;19.90;60.15
4590;BME280;2307;48.448;9.216;2022-09-09T10:51:05;95175.06;;;19.70;60.98
4590;BME280;2307;48.448;9.216;2022-09-09T10:53:39;95185.78;;;19.43;59.69
4590;BME280;2307;48.448;9.216;2022-09-09T10:56:09;95173.06;;;19.48;65.03
4590;BME280;2307;48.448;9.216;2022-09-09T10:58:40;95168.94;;;19.83;63.80
4590;BME280;2307;48.448;9.216;2022-09-09T11:01:10;95172.09;;;20.12;60.35
4590;BME280;2307;48.448;9.216;2022-09-09T11:03:39;95158.97;;;20.11;54.96
4590;BME280;2307;48.448;9.216;2022-09-09T11:06:07;95155.31;;;20.34;53.72
4590;BME280;2307;48.448;9.216;2022-09-09T11:08:39;95151.50;;;20.71;57.37
4590;BME280;2307;48.448;9.216;2022-09-09T11:11:06;95158.25;;;20.82;54.45
4590;BME280;2307;48.448;9.216;2022-09-09T11:13:38;95155.94;;;20.89;51.18
4590;BME280;2307;48.448;9.216;2022-09-09T11:16:11;95165.38;;;21.09;54.95
4590;BME280;2307;48.448;9.216;2022-09-09T11:18:41;95178.19;;;21.12;50.57
4590;BME280;2307;48.448;9.216;2022-09-09T11:21:10;95174.41;;;20.91;50.03
4590;BME280;2307;48.448;9.216;2022-09-09T11:23:40;95171.34;;;21.06;51.28
4590;BME280;2307;48.448;9.216;2022-09-09T11:26:10;95175.06;;;20.96;51.65
4590;BME280;2307;48.448;9.216;2022-09-09T11:28:42;95170.56;;;21.05;52.67
4590;BME280;2307;48.448;9.216;2022-09-09T11:31:19;95156.22;;;21.32;54.60
4590;BME280;2307;48.448;9.216;2022-09-09T11:33:51;95170.66;;;21.45;50.84
4590;BME280;2307;48.448;9.216;2022-09-09T11:36:30;95177.63;;;21.46;50.78
4590;BME280;2307;48.448;9.216;2022-09-09T11:39:02;95191.03;;;21.68;53.55
4590;BME280;2307;48.448;9.216;2022-09-09T11:41:33;95199.75;;;21.43;59.05
4590;BME280;2307;48.448;9.216;2022-09-09T11:44:08;95207.59;;;20.95;63.46
4590;BME280;2307;48.448;9.216;2022-09-09T11:46:38;95205.66;;;20.51;65.63
4590;BME280;2307;48.448;9.216;2022-09-09T11:49:21;95201.47;;;20.17;70.56
4590;BME280;2307;48.448;9.216;2022-09-09T11:51:51;95193.63;;;20.07;69.71
4590;BME280;2307;48.448;9.216;2022-09-09T11:54:29;95199.31;;;19.92;70.66
4590;BME280;2307;48.448;9.216;2022-09-09T11:56:57;95192.16;;;19.74;70.82
4590;BME280;2307;48.448;9.216;2022-09-09T11:59:24;95190.16;;;19.66;72.06
4590;BME280;2307;48.448;9.216;2022-09-09T12:01:55;95200.19;;;19.74;67.45
4590;BME280;2307;48.448;9.216;2022-09-09T12:04:30;95196.75;;;19.87;64.77
4590;BME280;2307;48.448;9.216;2022-09-09T12:06:58;95200.00;;;20.11;65.73
4590;BME280;2307;48.448;9.216;2022-09-09T12:09:27;95193.56;;;20.26;64.10
4590;BME280;2307;48.448;9.216;2022-09-09T12:12:04;95192.94;;;20.43;66.10
4590;BME280;2307;48.448;9.216;2022-09-09T12:14:35;95190.38;;;20.38;65.96
4590;BME280;2307;48.448;9.216;2022-09-09T12:17:10;95194.13;;;20.37;66.81
4590;BME280;2307;48.448;9.216;2022-09-09T12:19:43;95190.16;;;20.48;58.57
4590;BME280;2307;48.448;9.216;2022-09-09T12:22:12;95185.66;;;20.93;56.28
4590;BME280;2307;48.448;9.216;2022-09-09T12:24:43;95186.75;;;21.36;55.90
4590;BME280;2307;48.448;9.216;2022-09-09T12:27:14;95180.00;;;21.78;54.26
4590;BME280;2307;48.448;9.216;2022-09-09T12:29:47;95180.72;;;21.92;51.35
4590;BME280;2307;48.448;9.216;2022-09-09T12:32:17;95176.41;;;21.52;50.89
4590;BME280;2307;48.448;9.216;2022-09-09T12:34:47;95181.50;;;21.31;50.99
4590;BME280;2307;48.448;9.216;2022-09-09T12:37:16;95174.63;;;21.16;50.66
4590;BME280;2307;48.448;9.216;2022-09-09T12:39:45;95182.28;;;21.32;50.20
4590;BME280;2307;48.448;9.216;2022-09-09T12:42:17;95183.56;;;21.12;50.74
4590;BME280;2307;48.448;9.216;2022-09-09T12:44:50;95173.75;;;21.07;50.17
4590;BME280;2307;48.448;9.216;2022-09-09T12:47:18;95173.31;;;20.92;53.35
4590;BME280;2307;48.448;9.216;2022-09-09T12:49:46;95175.56;;;20.76;53.92
4590;BME280;2307;48.448;9.216;2022-09-09T12:52:14;95170.91;;;20.90;56.13
4590;BME280;2307;48.448;9.216;2022-09-09T12:54:43;95177.13;;;20.99;55.03
4590;BME280;2307;48.448;9.216;2022-09-09T12:57:11;95184.91;;;20.79;59.66
4590;BME280;2307;48.448;9.216;2022-09-09T12:59:39;95184.22;;;20.73;59.69
4590;BME280;2307;48.448;9.216;2022-09-09T13:02:11;95178.63;;;21.05;59.51
4590;BME280;2307;48.448;9.216;2022-09-09T13:04:44;95189.09;;;20.71;56.37
4590;BME280;2307;48.448;9.216;2022-09-09T13:07:12;95176.84;;;20.43;60.13
4590;BME280;2307;48.448;9.216;2022-09-09T13:09:38;95174.78;;;20.62;60.97
4590;BME280;2307;48.448;9.216;2022-09-09T13:12:05;95161.78;;;20.91;58.48
4590;BME280;2307;48.448;9.216;2022-09-09T13:14:33;95168.53;;;21.25;58.15
4590;BME280;2307;48.448;9.216;2022-09-09T13:17:03;95158.84;;;21.46;51.07
4590;BME280;2307;48.448;9.216;2022-09-09T13:19:31;95148.38;;;21.75;52.18
4590;BME280;2307;48.448;9.216;2022-09-09T13:21:59;95157.63;;;21.91;50.89
4590;BME280;2307;48.448;9.216;2022-09-09T13:24:28;95143.59;;;22.11;47.65
4590;BME280;2307;48.448;9.216;2022-09-09T13:26:55;95140.63;;;22.21;46.29
4590;BME280;2307;48.448;9.216;2022-09-09T13:29:22;95135.47;;;22.77;48.57
4590;BME280;2307;48.448;9.216;2022-09-09T13:31:48;95134.47;;;22.90;45.54